Bloomington, California
Current Conditions -  °F | °C
As of 7:53 PM on Friday 24 Oct 2014 (Local Time) from KRAL Reporting Station
Clear Clear  
Wind Chill: 78°   Ceiling: Unl
Heat Index: 78°   Visibility: 10mi
Dew Point: 27°   Wind: 0mph
Humidity: 15%   Direction: NA
Pressure: 29.98"   Gusts: NA
Location:  34.07°N, 117.39°W
Report Text: KRAL 250253Z 00000KT 10SM CLR 26/M03 A2998 RMK AO2 SLP136 T02561028 53018
Loading
Personal Weather Stations






























Interactive Weather Map
Tropical Storm Tracking
New forecast layout! Learn more

10-Day Weather Forecast

Advertisements
Track Severe Weather on mobile